createdAt,value
2022-11-03T06:51:16.591Z,2.90
2022-11-03T06:53:47.908Z,3.28
2022-11-03T06:56:16.894Z,3.20
2022-11-03T06:58:44.615Z,3.25
2022-11-03T07:01:23.283Z,3.40
2022-11-03T07:03:52.752Z,3.55
2022-11-03T07:06:24.737Z,3.30
2022-11-03T07:08:54.490Z,3.53
2022-11-03T07:11:25.757Z,4.13
2022-11-03T07:13:54.253Z,4.05
2022-11-03T07:16:32.541Z,3.42
2022-11-03T07:19:04.009Z,3.88
2022-11-03T07:21:33.564Z,4.80
2022-11-03T07:24:01.323Z,5.57
2022-11-03T07:26:28.419Z,7.28
2022-11-03T07:28:55.984Z,4.10
2022-11-03T07:31:24.253Z,7.03
2022-11-03T07:33:56.308Z,7.63
2022-11-03T07:36:24.744Z,4.30
2022-11-03T07:38:53.196Z,5.18
2022-11-03T07:41:21.556Z,4.97
2022-11-03T07:43:52.693Z,6.73
2022-11-03T07:46:21.556Z,4.82
2022-11-03T07:48:49.576Z,8.15
2022-11-03T07:51:21.426Z,6.07
2022-11-03T07:53:49.637Z,4.22
2022-11-03T07:56:36.556Z,4.25
2022-11-03T07:59:26.798Z,6.15
2022-11-03T08:01:58.770Z,9.32
2022-11-03T08:04:30.946Z,7.80
2022-11-03T08:06:58.088Z,7.07
2022-11-03T08:09:25.098Z,7.47
2022-11-03T08:11:52.458Z,7.18
2022-11-03T08:14:19.526Z,5.73
2022-11-03T08:16:46.580Z,4.60
2022-11-03T08:19:13.702Z,8.18
2022-11-03T08:21:40.707Z,5.78
2022-11-03T08:24:07.726Z,5.03
2022-11-03T08:26:34.761Z,4.45
2022-11-03T08:29:01.950Z,4.60
2022-11-03T08:31:29.304Z,3.05
2022-11-03T08:33:56.432Z,4.38
2022-11-03T08:36:23.415Z,2.55
2022-11-03T08:38:50.774Z,4.50
2022-11-03T08:41:17.769Z,2.70
2022-11-03T08:43:45.946Z,3.50
2022-11-03T08:46:17.779Z,6.75
2022-11-03T08:48:46.204Z,3.20
2022-11-03T08:51:14.419Z,5.53
2022-11-03T08:53:42.752Z,4.15
2022-11-03T08:56:12.952Z,4.80
2022-11-03T08:58:41.489Z,4.65
2022-11-03T09:01:08.474Z,7.40
2022-11-03T09:03:35.653Z,6.53
2022-11-03T09:06:02.709Z,4.43
2022-11-03T09:11:17.048Z,5.40
2022-11-03T09:13:46.493Z,4.28
2022-11-03T09:16:13.610Z,4.03
2022-11-03T09:18:41.327Z,5.55
2022-11-03T09:21:08.858Z,6.07
2022-11-03T09:23:35.930Z,5.43
2022-11-03T09:26:03.079Z,5.93
2022-11-03T09:28:30.105Z,6.28
2022-11-03T09:30:57.308Z,5.10
2022-11-03T09:33:24.344Z,4.87
2022-11-03T09:35:51.351Z,7.32
2022-11-03T09:38:18.506Z,4.95
2022-11-03T09:40:45.684Z,5.77
2022-11-03T09:43:12.878Z,6.43
2022-11-03T09:45:40.055Z,5.30
2022-11-03T09:48:10.782Z,6.57
2022-11-03T09:50:38.020Z,7.90
2022-11-03T09:53:05.328Z,9.77
2022-11-03T09:55:32.696Z,13.40
2022-11-03T09:58:00.993Z,5.32
2022-11-03T10:00:29.602Z,7.43
2022-11-03T10:02:56.823Z,8.80
2022-11-03T10:05:25.534Z,10.20
2022-11-03T10:07:58.707Z,7.35
2022-11-03T10:10:26.141Z,7.38
2022-11-03T10:12:53.503Z,10.48
2022-11-03T10:15:23.518Z,12.60
2022-11-03T10:17:51.714Z,10.65
2022-11-03T10:20:23.858Z,13.45
2022-11-03T10:22:54.411Z,11.93
2022-11-03T10:25:40.953Z,10.05
2022-11-03T10:28:29.545Z,9.07
2022-11-03T10:31:15.984Z,11.65
2022-11-03T10:33:52.078Z,18.17
2022-11-03T10:36:19.233Z,12.85
2022-11-03T10:38:47.704Z,18.85
2022-11-03T10:41:16.048Z,12.57
2022-11-03T10:43:44.507Z,14.07
2022-11-03T10:46:36.719Z,11.75
2022-11-03T10:49:11.185Z,14.77
2022-11-03T10:51:38.555Z,12.48
2022-11-03T10:54:06.533Z,9.60
2022-11-03T10:56:33.886Z,9.18
2022-11-03T10:59:01.456Z,12.60
2022-11-03T11:01:28.650Z,9.95
2022-11-03T11:03:56.131Z,13.48
2022-11-03T11:06:30.694Z,11.77
2022-11-03T11:09:01.826Z,8.77
2022-11-03T11:11:29.558Z,9.63
2022-11-03T11:14:15.544Z,12.20
2022-11-03T11:16:57.908Z,13.02
2022-11-03T11:19:26.216Z,13.15
2022-11-03T11:21:53.656Z,12.40
2022-11-03T11:24:39.695Z,11.18
2022-11-03T11:27:26.934Z,11.48
2022-11-03T11:29:54.024Z,10.23
2022-11-03T11:32:39.718Z,16.83
2022-11-03T11:35:10.645Z,11.35
2022-11-03T11:37:38.539Z,10.68
2022-11-03T11:40:23.974Z,11.48
2022-11-03T11:43:06.426Z,11.57
2022-11-03T11:45:52.557Z,12.98
2022-11-03T11:48:19.580Z,8.90
2022-11-03T11:50:46.934Z,6.28
2022-11-03T11:53:14.826Z,5.70
2022-11-03T11:55:47.490Z,8.65
2022-11-03T11:58:16.565Z,5.80
2022-11-03T12:00:57.705Z,4.50
2022-11-03T12:03:27.231Z,4.05
2022-11-03T12:05:54.337Z,2.15
2022-11-03T12:08:21.690Z,3.03
2022-11-03T12:11:10.039Z,4.22
2022-11-03T12:13:50.346Z,2.20
2022-11-03T12:16:28.234Z,1.95
2022-11-03T12:18:56.777Z,4.13
2022-11-03T12:21:42.880Z,5.50
2022-11-03T12:24:36.305Z,4.63
2022-11-03T12:27:05.380Z,4.93
2022-11-03T12:29:32.509Z,4.93
2022-11-03T12:31:59.600Z,5.17
2022-11-03T12:34:26.624Z,5.65
2022-11-03T12:36:56.369Z,5.60
2022-11-03T12:39:23.506Z,3.88
2022-11-03T12:41:50.563Z,3.78
2022-11-03T12:44:17.648Z,6.13
2022-11-03T12:46:44.720Z,5.95
2022-11-03T12:49:12.291Z,4.70
2022-11-03T12:51:39.380Z,6.55
2022-11-03T12:54:06.418Z,5.20
2022-11-03T12:56:33.452Z,5.55
2022-11-03T12:59:00.463Z,5.13
2022-11-03T13:01:27.605Z,4.72
2022-11-03T13:03:54.818Z,5.13
2022-11-03T13:06:21.918Z,4.60
2022-11-03T13:08:53.118Z,6.03
2022-11-03T13:11:39.108Z,5.43
2022-11-03T13:14:06.379Z,9.18
2022-11-03T13:16:33.464Z,5.95
2022-11-03T13:19:00.484Z,8.25
2022-11-03T13:21:27.675Z,4.07
2022-11-03T13:23:56.269Z,7.20
2022-11-03T13:26:23.295Z,7.25
2022-11-03T13:28:50.275Z,6.63
2022-11-03T13:31:17.283Z,7.90
2022-11-03T13:33:44.568Z,10.32
2022-11-03T13:36:11.841Z,5.85
2022-11-03T13:38:39.078Z,7.45
2022-11-03T13:41:09.094Z,7.82
2022-11-03T13:43:36.516Z,7.77
2022-11-03T13:46:04.890Z,7.65
2022-11-03T13:51:19.174Z,24.42
